Hamlet, Ohio
Current Conditions -  °F | °C
As of 8:53 AM on Monday 24 Nov 2014 (Local Time) from KLUK Reporting Station
Overcast Overcast  
Wind Chill: 62°   Ceiling: 4700
Heat Index: 62°   Visibility: 10mi
Dew Point: 51°   Wind: 36mph
Humidity: 67%   Direction: 200°SSW
Pressure: 29.33"   Gusts: 45mph
Location:  39.0167°N, 84.2069°W
Report Text: KLUK 241353Z 20031G39KT 10SM SCT040 BKN047 OVC060 17/11 A2933 RMK AO2 PK WND 20039/1352 SLP929 T01670106
Loading
Personal Weather Stations






























Interactive Weather Map New forecast layout! Learn more

10-Day Weather Forecast

Advertisements
Track Severe Weather on mobile